الصفحة الرئيسية
METAR-TAF:

METAR-TAF

مطار :

مطار ماكاران الدولي

لاس فيغاس, نيفادا, الولايات المتحدة

دائرة عرض: 36-04-44N, خط طول: 115-09-19W, ارتفاع: 663 متر

مراقبة الطقس الحالي

تاريخ ووقت الإصدار 42 دقيقة قبل الساعة 22:56UTC
ريح 3 عقدة من الغرب/الشمال الغربي
درجة الحرارة 32°درجة مئوية
الرطوبة 8%
ضغط 1018 hPa
الرؤية: 16.1 كم
سماء صافية

METAR: KLAS 292256Z 29003KT 10SM CLR 32/M07 A3007 RMK AO2 SLP159 T03221067

زمن: 16:38 (23:38 UTC)

توقعات

تاريخ ووقت الإصدار 3ساعات و 2 دقيقة قبل الساعة 20:36UTC
التوقعات صالحة من29 الساعة 21 UTC إلى 30 الساعة 24 UTC
ريح 6 عقدة من الشرق/الشمال الشرقي
الرؤية: 10 كم
سماء صافية
من 30 الساعة 0400 UTC
ريح 6 عقدة من الجنوب الغربي
الرؤية: 10 كم
سماء صافية
من 30 الساعة 1100 UTC
ريح 5 عقدةمن اتجاهات متغيرة
الرؤية: 10 كم
سماء صافية

TAF: KLAS 292036Z 2921/3024 06006KT P6SM SKC FM300400 22006KT P6SM SKC FM301100 VRB05KT P6SM SKC

أرصاد الطقس والتوقعات من أكثر من 4000 مطار (تقارير الطقس للمطار METAR والتنبؤ بالطقس بالمطارTAF).

المحطات المتاحة هي النقط الصفراء والحمراء على الخريطة.

حرك المؤشر فوق النقطة لمعرفة اسم المحطة.

ثم انقر لمعرفة أرصاد وتوقعات الطقس.

لتغيير الخارطة: اضغط على الأزرار الخضراء مع رمز الصليب الأسود للتكبير. على الزر الأخضر مع شرطة للتصغير، أو على الأسهم الخضراء للخرائط المجاورة.


METAR-TAF: